Time;durP1;ratioP1;P1;durP2;ratioP2;P2;SDS_P1;SDS_P2;PMS_P1;PMS_P2;Temp;Humidity;BMP_temperature;BMP_pressure;BME280_temperature;BME280_humidity;BME280_pressure;Samples;Min_cycle;Max_cycle;Signal;HPM_P1;HPM_P2
2022/08/10 00:00:21;;;;;;;3.83;1.20;;;27.70;37.10;;;;;;6154254;23;20006;-68
2022/08/10 00:02:53;;;;;;;4.88;1.30;;;27.70;37.40;;;;;;6154233;23;19997;-69
2022/08/10 00:05:19;;;;;;;7.93;1.80;;;27.70;37.80;;;;;;6154545;23;20009;-68
2022/08/10 00:07:45;;;;;;;4.82;1.48;;;27.70;38.10;;;;;;6153935;23;20009;-68
2022/08/10 00:10:13;;;;;;;2.63;1.27;;;27.70;38.10;;;;;;6154146;23;20092;-68
2022/08/10 00:12:39;;;;;;;4.35;1.52;;;27.70;38.20;;;;;;6154417;23;20017;-68
2022/08/10 00:15:06;;;;;;;2.67;1.40;;;27.70;38.30;;;;;;6154331;23;20003;-69
2022/08/10 00:17:32;;;;;;;2.00;1.20;;;27.60;38.40;;;;;;6154094;23;20001;-68
2022/08/10 00:19:58;;;;;;;4.55;1.60;;;27.60;39.30;;;;;;6154124;23;20010;-69
2022/08/10 00:22:24;;;;;;;5.20;1.40;;;27.50;38.80;;;;;;6154108;23;20009;-68
2022/08/10 00:24:49;;;;;;;6.50;1.60;;;27.50;38.90;;;;;;6154139;23;20081;-69
2022/08/10 00:27:15;;;;;;;2.38;1.50;;;27.50;38.80;;;;;;6154232;23;20009;-68
2022/08/10 00:29:41;;;;;;;8.65;1.17;;;27.40;38.60;;;;;;6155600;23;20004;-68
2022/08/10 00:32:06;;;;;;;2.97;1.30;;;27.40;38.90;;;;;;6156148;23;20013;-68
2022/08/10 00:34:33;;;;;;;9.80;1.40;;;27.40;39.10;;;;;;6155977;23;20328;-69
2022/08/10 00:37:00;;;;;;;2.00;1.38;;;27.40;39.10;;;;;;6156023;23;20010;-67
2022/08/10 00:39:27;;;;;;;5.97;1.40;;;27.30;39.10;;;;;;6156322;23;20056;-67
2022/08/10 00:41:53;;;;;;;5.75;1.70;;;27.30;39.10;;;;;;6156325;23;20009;-68
2022/08/10 00:44:19;;;;;;;4.45;1.60;;;27.30;39.30;;;;;;6155698;23;20033;-69
2022/08/10 00:46:45;;;;;;;3.67;1.70;;;27.20;39.60;;;;;;6155812;23;20005;-67
2022/08/10 00:49:11;;;;;;;3.05;1.08;;;27.20;39.70;;;;;;6155647;23;20036;-67
2022/08/10 00:51:37;;;;;;;4.57;1.30;;;27.20;39.80;;;;;;6155323;23;20002;-67
2022/08/10 00:54:03;;;;;;;5.70;1.40;;;27.20;39.20;;;;;;6155858;23;20013;-68
2022/08/10 00:56:28;;;;;;;2.47;1.23;;;27.10;39.40;;;;;;6155591;23;20081;-68
2022/08/10 00:58:54;;;;;;;2.92;1.25;;;27.10;39.80;;;;;;6152739;23;20103;-68
2022/08/10 01:01:20;;;;;;;5.53;1.42;;;27.00;40.00;;;;;;6152313;23;20006;-68
2022/08/10 01:03:45;;;;;;;1.88;1.20;;;27.00;39.90;;;;;;6152596;23;20012;-68
2022/08/10 01:06:25;;;;;;;2.58;1.20;;;26.90;39.80;;;;;;6155370;23;20006;-69
2022/08/10 01:08:59;;;;;;;1.95;1.40;;;26.90;39.90;;;;;;6155288;23;20044;-68
2022/08/10 01:11:35;;;;;;;6.30;1.70;;;26.90;40.00;;;;;;6155552;23;20065;-68
2022/08/10 01:14:15;;;;;;;3.30;1.40;;;26.90;40.00;;;;;;6155801;23;20278;-68
2022/08/10 01:16:50;;;;;;;3.60;1.25;;;26.90;40.40;;;;;;6155738;23;20008;-68
2022/08/10 01:19:35;;;;;;;1.40;1.10;;;26.90;40.40;;;;;;6155442;23;20018;-68
2022/08/10 01:22:31;;;;;;;3.40;1.52;;;26.80;40.50;;;;;;6155391;23;20006;-68
2022/08/10 01:25:27;;;;;;;3.42;1.42;;;26.80;40.20;;;;;;6155970;23;20017;-68
2022/08/10 01:28:04;;;;;;;1.60;1.27;;;26.70;40.40;;;;;;6154958;23;20020;-68
2022/08/10 01:30:32;;;;;;;4.68;1.83;;;26.70;40.40;;;;;;6155046;23;20325;-68
2022/08/10 01:33:08;;;;;;;2.85;1.30;;;26.60;40.00;;;;;;6155670;23;20012;-68
2022/08/10 01:35:44;;;;;;;6.53;1.75;;;26.60;40.20;;;;;;6155061;23;20001;-69
2022/08/10 01:38:17;;;;;;;8.45;1.40;;;26.60;40.30;;;;;;6155235;23;20021;-68
2022/08/10 01:40:53;;;;;;;5.03;1.88;;;26.60;40.60;;;;;;6155186;23;20037;-69
2022/08/10 01:43:20;;;;;;;7.25;1.73;;;26.50;40.60;;;;;;6155550;23;20004;-68
2022/08/10 01:45:51;;;;;;;2.47;1.35;;;26.50;40.90;;;;;;6155572;23;20041;-68
2022/08/10 01:48:27;;;;;;;5.68;1.80;;;26.50;41.00;;;;;;6155432;23;20029;-68
2022/08/10 01:51:01;;;;;;;3.90;1.52;;;26.40;40.90;;;;;;6155906;23;20001;-68
2022/08/10 01:53:34;;;;;;;3.58;1.48;;;26.40;40.80;;;;;;6155285;23;20583;-68
2022/08/10 01:56:01;;;;;;;4.45;1.60;;;26.30;40.80;;;;;;6155480;23;20010;-68
2022/08/10 01:58:29;;;;;;;8.23;1.70;;;26.30;40.80;;;;;;6155973;23;20076;-68
2022/08/10 02:00:59;;;;;;;3.42;1.60;;;26.30;41.30;;;;;;6156403;23;20001;-68
2022/08/10 02:03:25;;;;;;;2.83;1.50;;;26.20;41.40;;;;;;6156803;23;20001;-68
2022/08/10 02:05:54;;;;;;;4.60;1.42;;;26.20;41.40;;;;;;6156551;23;20020;-71
2022/08/10 02:08:23;;;;;;;3.55;1.33;;;26.20;41.60;;;;;;6156586;23;20076;-71
2022/08/10 02:10:51;;;;;;;2.85;1.33;;;26.20;41.50;;;;;;6156528;23;20064;-69
2022/08/10 02:13:18;;;;;;;2.50;1.40;;;26.20;41.50;;;;;;6155084;23;20064;-71
2022/08/10 02:15:47;;;;;;;3.38;1.20;;;26.10;41.30;;;;;;6156657;23;20369;-68
2022/08/10 02:18:13;;;;;;;3.63;1.42;;;26.10;41.30;;;;;;6156392;23;20037;-70
2022/08/10 02:20:44;;;;;;;3.42;1.52;;;26.10;41.40;;;;;;6156129;23;20018;-68
2022/08/10 02:23:23;;;;;;;3.78;1.45;;;26.00;41.60;;;;;;6156283;23;20437;-71
2022/08/10 02:25:52;;;;;;;4.10;1.55;;;26.10;41.90;;;;;;6156152;23;20076;-68
2022/08/10 02:28:20;;;;;;;2.28;1.30;;;26.00;41.90;;;;;;6156715;23;20013;-69
2022/08/10 02:30:48;;;;;;;4.32;1.50;;;26.00;42.00;;;;;;6156461;23;20077;-69
2022/08/10 02:33:18;;;;;;;7.53;1.63;;;25.90;42.00;;;;;;6156509;23;20360;-68
2022/08/10 02:35:45;;;;;;;4.10;1.60;;;25.90;42.20;;;;;;6156401;23;20029;-68
2022/08/10 02:38:12;;;;;;;3.60;1.58;;;25.90;42.30;;;;;;6156286;23;20049;-71
2022/08/10 02:40:45;;;;;;;4.68;1.50;;;25.80;42.30;;;;;;6156614;23;20036;-67
2022/08/10 02:43:24;;;;;;;4.30;1.60;;;25.80;42.60;;;;;;6156425;23;20013;-70
2022/08/10 02:45:58;;;;;;;6.50;2.35;;;25.80;42.80;;;;;;6156061;23;19998;-71
2022/08/10 02:48:39;;;;;;;3.70;1.48;;;25.80;42.90;;;;;;6156016;23;20009;-70
2022/08/10 02:51:14;;;;;;;3.95;1.25;;;25.70;42.70;;;;;;6155895;23;20025;-71
2022/08/10 02:53:46;;;;;;;2.90;1.30;;;25.70;42.60;;;;;;6156335;23;20006;-70
2022/08/10 02:56:31;;;;;;;;;;;25.70;42.40;;;;;;6156725;23;20017;-68
2022/08/10 02:59:08;;;;;;;5.82;1.40;;;25.70;42.50;;;;;;6095444;23;20241;-68
2022/08/10 03:01:41;;;;;;;2.45;1.40;;;25.70;43.10;;;;;;6156111;23;20005;-68
2022/08/10 03:04:18;;;;;;;4.53;1.40;;;25.70;43.10;;;;;;6155936;23;20011;-67
2022/08/10 03:06:54;;;;;;;3.75;1.20;;;25.60;42.60;;;;;;6156120;23;20013;-70
2022/08/10 03:09:22;;;;;;;6.40;1.27;;;25.60;42.40;;;;;;6155904;23;20032;-70
2022/08/10 03:11:51;;;;;;;11.82;1.45;;;25.60;42.50;;;;;;6156364;23;20015;-68
2022/08/10 03:14:18;;;;;;;6.60;1.40;;;25.60;42.90;;;;;;6155982;23;20002;-68
2022/08/10 03:16:46;;;;;;;4.47;1.10;;;25.50;42.30;;;;;;6156399;23;20084;-69
2022/08/10 03:19:13;;;;;;;3.33;1.50;;;25.50;42.10;;;;;;6155493;23;20098;-71
2022/08/10 03:21:40;;;;;;;3.65;1.13;;;25.50;41.60;;;;;;6156156;23;20012;-70
2022/08/10 03:24:09;;;;;;;4.30;1.20;;;25.50;41.50;;;;;;6155986;23;20984;-70
2022/08/10 03:26:36;;;;;;;4.78;1.20;;;25.50;41.40;;;;;;6155927;23;20432;-70
2022/08/10 03:29:04;;;;;;;7.65;1.52;;;25.50;41.50;;;;;;6155946;23;20010;-69
2022/08/10 03:31:31;;;;;;;5.57;1.50;;;25.50;41.40;;;;;;6155728;23;19997;-70
2022/08/10 03:34:00;;;;;;;2.30;1.15;;;25.50;41.60;;;;;;6155801;23;20333;-71
2022/08/10 03:36:26;;;;;;;2.30;1.33;;;25.50;41.80;;;;;;6156030;23;20125;-71
2022/08/10 03:38:51;;;;;;;7.45;1.70;;;25.50;41.70;;;;;;6155904;23;20390;-70
2022/08/10 03:41:22;;;;;;;2.40;1.23;;;25.50;42.20;;;;;;6155923;23;20006;-68
2022/08/10 03:43:50;;;;;;;2.38;1.42;;;25.50;41.50;;;;;;6156051;23;20180;-69
2022/08/10 03:46:20;;;;;;;3.28;1.48;;;25.50;41.50;;;;;;6155581;23;20076;-68
2022/08/10 03:48:49;;;;;;;3.35;1.30;;;25.50;41.40;;;;;;6155841;23;20088;-68
2022/08/10 03:51:17;;;;;;;5.22;1.65;;;25.50;41.40;;;;;;6155871;23;19997;-68
2022/08/10 03:53:43;;;;;;;2.88;1.10;;;25.50;41.20;;;;;;6155358;23;19998;-71
2022/08/10 03:56:09;;;;;;;2.67;1.30;;;25.50;41.20;;;;;;6155890;23;20002;-68
2022/08/10 03:58:35;;;;;;;5.50;1.33;;;25.40;41.10;;;;;;6155707;23;20153;-70
2022/08/10 04:01:01;;;;;;;4.55;1.30;;;25.50;41.50;;;;;;6156062;23;20092;-69
2022/08/10 04:03:27;;;;;;;6.20;1.30;;;25.40;41.80;;;;;;6157105;23;20006;-71
2022/08/10 04:05:54;;;;;;;3.03;1.42;;;25.40;42.10;;;;;;6158081;23;20470;-71
2022/08/10 04:08:20;;;;;;;4.00;1.13;;;25.40;41.90;;;;;;6157715;23;20020;-67
2022/08/10 04:10:45;;;;;;;9.40;1.70;;;25.40;41.60;;;;;;6157590;23;20001;-67
2022/08/10 04:13:11;;;;;;;3.65;1.50;;;25.40;41.50;;;;;;6157603;23;20088;-67
2022/08/10 04:15:37;;;;;;;4.93;1.10;;;25.40;41.70;;;;;;6157676;23;20005;-70
2022/08/10 04:18:03;;;;;;;2.38;1.20;;;25.40;41.80;;;;;;6157720;23;20425;-69
2022/08/10 04:20:35;;;;;;;3.08;1.30;;;25.30;41.70;;;;;;6157285;23;20392;-70
2022/08/10 04:23:08;;;;;;;10.80;2.17;;;25.30;41.80;;;;;;6157810;23;20007;-71
2022/08/10 04:25:37;;;;;;;6.97;1.60;;;25.30;41.80;;;;;;6157873;23;20009;-70
2022/08/10 04:28:03;;;;;;;6.30;1.30;;;25.30;41.60;;;;;;6157341;23;20508;-68
2022/08/10 04:30:30;;;;;;;5.20;1.30;;;25.30;41.50;;;;;;6157171;23;20037;-67
2022/08/10 04:32:58;;;;;;;4.13;1.58;;;25.30;41.40;;;;;;6157440;23;20009;-67
2022/08/10 04:35:28;;;;;;;3.83;1.55;;;25.20;41.10;;;;;;6157554;23;19997;-68
2022/08/10 04:37:55;;;;;;;5.10;1.30;;;25.30;41.00;;;;;;6157700;23;20009;-68
2022/08/10 04:40:22;;;;;;;4.28;1.60;;;25.30;40.90;;;;;;6157149;23;19997;-69
2022/08/10 04:42:48;;;;;;;2.97;1.27;;;25.30;40.90;;;;;;6157459;23;20369;-69
2022/08/10 04:45:14;;;;;;;6.35;1.38;;;25.30;41.10;;;;;;6157434;23;19998;-70
2022/08/10 04:47:40;;;;;;;4.03;1.23;;;25.30;41.30;;;;;;6157026;23;20460;-70
2022/08/10 04:50:06;;;;;;;4.68;1.30;;;25.30;41.90;;;;;;6157254;23;20013;-73
2022/08/10 04:52:32;;;;;;;4.05;1.10;;;25.30;42.20;;;;;;6157419;23;20009;-76
2022/08/10 04:54:58;;;;;;;7.43;1.50;;;25.30;42.60;;;;;;6157385;23;20077;-75
2022/08/10 04:57:23;;;;;;;4.65;1.60;;;25.30;42.50;;;;;;6157111;23;20041;-72
2022/08/10 04:59:49;;;;;;;4.75;1.70;;;25.30;42.30;;;;;;6157863;23;20435;-72
2022/08/10 05:02:15;;;;;;;2.35;1.35;;;25.30;42.50;;;;;;6157136;23;20006;-76
2022/08/10 05:04:41;;;;;;;4.65;1.25;;;25.30;42.30;;;;;;6157123;23;20476;-73
2022/08/10 05:07:11;;;;;;;5.35;1.23;;;25.30;42.20;;;;;;6157251;23;20009;-75
2022/08/10 05:09:38;;;;;;;4.22;1.30;;;25.30;42.40;;;;;;6156812;23;20001;-78
2022/08/10 05:12:04;;;;;;;2.22;1.30;;;25.30;42.50;;;;;;6157345;23;20438;-73
2022/08/10 05:14:30;;;;;;;5.47;1.33;;;25.30;42.40;;;;;;6156646;23;20012;-75
2022/08/10 05:16:55;;;;;;;5.03;1.30;;;25.30;42.20;;;;;;6156837;23;20073;-78
2022/08/10 05:19:21;;;;;;;5.15;1.42;;;25.40;42.30;;;;;;6156829;23;20076;-72
2022/08/10 05:21:47;;;;;;;4.68;1.30;;;25.40;42.10;;;;;;6156690;23;20053;-71
2022/08/10 05:24:12;;;;;;;4.10;1.10;;;25.40;42.00;;;;;;6156997;23;20012;-71
2022/08/10 05:26:38;;;;;;;4.30;1.35;;;25.40;41.90;;;;;;6156808;23;20014;-71
2022/08/10 05:29:04;;;;;;;5.97;1.42;;;25.50;42.00;;;;;;6156786;23;20009;-71
2022/08/10 05:31:29;;;;;;;6.53;1.20;;;25.50;42.10;;;;;;6156712;23;20009;-71
2022/08/10 05:33:55;;;;;;;6.50;1.30;;;25.50;42.10;;;;;;6156527;23;20009;-72
2022/08/10 05:36:21;;;;;;;4.25;1.30;;;25.50;42.10;;;;;;6156935;23;20005;-75
2022/08/10 05:38:48;;;;;;;2.75;1.20;;;25.50;41.80;;;;;;6156369;23;20005;-73
2022/08/10 05:41:15;;;;;;;6.53;1.52;;;25.60;41.80;;;;;;6156773;23;20013;-75
2022/08/10 05:43:42;;;;;;;8.63;1.20;;;25.60;41.40;;;;;;6156634;23;20425;-71
2022/08/10 05:46:07;;;;;;;5.60;1.23;;;25.60;41.40;;;;;;6156644;23;20387;-73
2022/08/10 05:48:35;;;;;;;4.05;1.27;;;25.70;41.30;;;;;;6156480;23;20065;-74
2022/08/10 05:51:01;;;;;;;5.90;1.20;;;25.70;41.30;;;;;;6156889;23;20306;-73
2022/08/10 05:53:27;;;;;;;2.67;0.98;;;25.70;41.20;;;;;;6156628;23;20021;-75
2022/08/10 05:55:53;;;;;;;4.60;1.13;;;25.70;41.00;;;;;;6156421;23;20005;-72
2022/08/10 05:58:19;;;;;;;4.10;1.05;;;25.80;41.00;;;;;;6156335;23;20006;-72
2022/08/10 06:00:52;;;;;;;5.88;1.23;;;25.80;40.80;;;;;;6156387;23;20377;-76
2022/08/10 06:03:30;;;;;;;9.07;1.45;;;25.80;40.80;;;;;;6156877;23;20100;-76
2022/08/10 06:05:57;;;;;;;3.67;1.20;;;25.80;41.40;;;;;;6156471;23;20001;-74
2022/08/10 06:08:30;;;;;;;3.17;1.17;;;25.90;41.10;;;;;;6156446;23;20012;-72
2022/08/10 06:10:58;;;;;;;3.35;1.20;;;25.90;41.10;;;;;;6156377;23;20008;-75
2022/08/10 06:16:12;;;;;;;2.53;1.30;;;26.00;40.80;;;;;;6156381;23;20076;-75
2022/08/10 06:18:38;;;;;;;2.97;1.20;;;26.10;40.80;;;;;;6156168;23;20445;-72
2022/08/10 06:21:05;;;;;;;2.38;1.25;;;26.10;40.50;;;;;;6156511;23;20310;-74
2022/08/10 06:23:32;;;;;;;3.40;1.13;;;26.10;40.30;;;;;;6156378;23;20012;-73
2022/08/10 06:25:58;;;;;;;3.92;1.38;;;26.20;40.30;;;;;;6155758;23;20009;-73
2022/08/10 06:28:27;;;;;;;5.43;1.25;;;26.20;40.20;;;;;;6156472;23;20029;-73
2022/08/10 06:30:55;;;;;;;5.63;1.60;;;26.30;40.30;;;;;;6156396;23;20057;-70
2022/08/10 06:33:25;;;;;;;5.72;1.50;;;26.30;40.20;;;;;;6156372;23;20429;-69
2022/08/10 06:35:53;;;;;;;7.35;1.30;;;26.30;40.00;;;;;;6155907;23;20329;-70
2022/08/10 06:38:22;;;;;;;6.07;1.15;;;26.40;39.70;;;;;;6154650;23;20068;-73
2022/08/10 06:40:49;;;;;;;4.78;1.30;;;26.40;39.50;;;;;;6155176;23;20381;-75
2022/08/10 06:43:19;;;;;;;6.15;1.40;;;26.50;39.50;;;;;;6154520;23;20094;-72
2022/08/10 06:46:00;;;;;;;4.38;1.00;;;26.50;39.30;;;;;;6155033;23;20368;-71
2022/08/10 06:48:33;;;;;;;3.15;1.30;;;26.60;39.20;;;;;;6156366;23;20012;-71
2022/08/10 06:51:14;;;;;;;2.47;1.00;;;26.60;39.20;;;;;;6156281;23;19998;-72
2022/08/10 06:53:55;;;;;;;3.90;1.37;;;26.60;39.20;;;;;;6156355;23;20009;-72
2022/08/10 06:56:26;;;;;;;3.15;1.27;;;26.70;38.90;;;;;;6156192;23;20009;-72
2022/08/10 06:59:05;;;;;;;9.50;1.50;;;26.70;38.70;;;;;;6156606;23;20002;-72
2022/08/10 07:01:35;;;;;;;1.90;1.17;;;26.80;38.60;;;;;;6156238;23;20377;-72
2022/08/10 07:04:17;;;;;;;4.15;1.38;;;26.80;39.10;;;;;;6156015;23;20012;-71
2022/08/10 07:06:45;;;;;;;3.10;1.05;;;26.90;38.40;;;;;;6155919;23;20014;-71
2022/08/10 07:09:15;;;;;;;3.28;1.38;;;26.90;38.30;;;;;;6156535;23;20033;-72
2022/08/10 07:11:43;;;;;;;5.05;1.35;;;27.00;38.30;;;;;;6156154;23;20325;-71
2022/08/10 07:14:12;;;;;;;8.65;1.40;;;27.00;38.20;;;;;;6156503;23;20314;-72
2022/08/10 07:16:39;;;;;;;6.15;1.27;;;27.10;38.20;;;;;;6156384;23;20364;-72
2022/08/10 07:19:08;;;;;;;5.63;1.20;;;27.10;38.20;;;;;;6155909;23;20013;-71
2022/08/10 07:21:38;;;;;;;3.33;1.20;;;27.20;38.00;;;;;;6155652;23;20082;-72
2022/08/10 07:24:08;;;;;;;4.25;1.10;;;27.20;38.00;;;;;;6156162;23;20043;-72
2022/08/10 07:26:36;;;;;;;7.22;1.55;;;27.20;38.00;;;;;;6156261;23;20372;-71
2022/08/10 07:29:03;;;;;;;3.25;1.35;;;27.30;38.00;;;;;;6156296;23;20060;-72
2022/08/10 07:31:30;;;;;;;2.67;1.13;;;27.40;37.90;;;;;;6155912;23;20001;-71
2022/08/10 07:33:58;;;;;;;5.82;1.17;;;27.40;37.60;;;;;;6156239;23;20056;-71
2022/08/10 07:36:25;;;;;;;4.80;1.02;;;27.40;37.30;;;;;;6156213;23;20048;-71
2022/08/10 07:38:54;;;;;;;3.47;1.25;;;27.50;37.10;;;;;;6155768;23;20080;-71
2022/08/10 07:41:23;;;;;;;3.15;1.00;;;27.50;37.10;;;;;;6156280;23;20009;-71
2022/08/10 07:43:50;;;;;;;2.03;1.13;;;27.60;36.60;;;;;;6155948;23;20005;-72
2022/08/10 07:46:21;;;;;;;4.20;1.20;;;27.70;36.20;;;;;;6155891;23;20005;-71
2022/08/10 07:48:53;;;;;;;5.68;1.00;;;27.70;36.10;;;;;;6155713;23;20009;-73
2022/08/10 07:51:19;;;;;;;5.60;1.17;;;27.80;36.00;;;;;;6155798;23;20029;-72
2022/08/10 07:53:50;;;;;;;4.50;1.17;;;27.80;35.70;;;;;;6155314;23;20005;-67
2022/08/10 07:56:21;;;;;;;3.58;1.30;;;27.80;35.50;;;;;;6155646;23;20048;-71
2022/08/10 07:58:56;;;;;;;2.72;1.10;;;27.90;35.80;;;;;;6156140;23;19998;-71
2022/08/10 08:01:28;;;;;;;8.70;1.25;;;27.90;35.90;;;;;;6156114;23;20376;-71
2022/08/10 08:03:55;;;;;;;4.80;1.33;;;28.00;35.60;;;;;;6155846;23;20004;-71
2022/08/10 08:06:22;;;;;;;6.63;1.20;;;28.10;35.60;;;;;;6155787;23;20088;-71
2022/08/10 08:08:49;;;;;;;7.70;1.10;;;28.10;35.00;;;;;;6155728;23;20041;-71
2022/08/10 08:11:15;;;;;;;3.03;0.90;;;28.10;35.00;;;;;;6155840;23;20049;-72
2022/08/10 08:13:42;;;;;;;2.55;0.93;;;28.20;35.40;;;;;;6155651;23;20009;-73
2022/08/10 08:16:09;;;;;;;3.42;0.98;;;28.20;34.50;;;;;;6156162;23;20012;-71
2022/08/10 08:18:36;;;;;;;2.25;1.02;;;28.30;34.20;;;;;;6155728;23;20017;-71
2022/08/10 08:21:03;;;;;;;2.38;0.90;;;28.30;34.50;;;;;;6155845;23;20009;-71
2022/08/10 08:23:30;;;;;;;3.30;1.20;;;28.30;34.80;;;;;;6155793;23;20036;-65
2022/08/10 08:25:56;;;;;;;5.60;0.98;;;28.30;34.60;;;;;;6155388;23;20006;-66
2022/08/10 08:28:23;;;;;;;5.18;1.20;;;28.40;34.70;;;;;;6155489;23;20010;-65
2022/08/10 08:30:51;;;;;;;3.17;1.10;;;28.40;34.60;;;;;;6155547;23;20060;-64
2022/08/10 08:33:18;;;;;;;4.60;1.20;;;28.50;34.70;;;;;;6155573;23;20491;-66
2022/08/10 08:35:44;;;;;;;3.65;1.17;;;28.60;34.30;;;;;;6155554;23;19997;-68
2022/08/10 08:38:12;;;;;;;1.38;0.75;;;28.70;34.60;;;;;;6155865;23;20012;-65
2022/08/10 08:40:43;;;;;;;2.58;0.93;;;28.70;34.50;;;;;;6155462;23;20302;-65
2022/08/10 08:43:18;;;;;;;6.85;1.02;;;28.80;34.80;;;;;;6155566;23;19997;-65
2022/08/10 08:46:30;;;;;;;2.85;0.98;;;28.90;34.70;;;;;;6155546;23;20006;-65
2022/08/10 08:49:17;;;;;;;5.43;0.90;;;28.90;34.20;;;;;;6155517;23;20013;-64
2022/08/10 08:52:22;;;;;;;7.20;0.98;;;29.00;33.60;;;;;;6157553;23;20333;-64
2022/08/10 08:55:17;;;;;;;4.30;1.10;;;29.10;34.40;;;;;;6157453;23;20011;-64
2022/08/10 08:58:08;;;;;;;3.13;0.90;;;29.10;33.70;;;;;;6157584;23;20016;-65
2022/08/10 09:00:46;;;;;;;5.47;1.20;;;29.20;33.60;;;;;;6157634;23;20002;-65
2022/08/10 09:03:41;;;;;;;3.83;1.30;;;29.30;33.80;;;;;;6158180;23;20029;-66
2022/08/10 09:06:31;;;;;;;2.35;1.00;;;29.30;33.50;;;;;;6157711;23;20014;-65
2022/08/10 09:09:14;;;;;;;3.70;0.98;;;29.40;33.00;;;;;;6157214;23;20088;-64
2022/08/10 09:12:10;;;;;;;2.00;1.00;;;29.40;32.90;;;;;;6157158;23;20008;-64
2022/08/10 09:15:01;;;;;;;3.53;1.10;;;29.50;33.20;;;;;;6156357;23;20001;-65
2022/08/10 09:18:03;;;;;;;4.77;1.20;;;29.60;33.30;;;;;;6157323;23;19997;-65
2022/08/10 09:20:54;;;;;;;7.40;1.30;;;29.70;32.90;;;;;;6156872;23;20014;-65
2022/08/10 09:23:46;;;;;;;2.45;1.23;;;29.70;32.70;;;;;;6157201;23;20001;-66
2022/08/10 09:26:37;;;;;;;5.38;1.15;;;29.80;32.70;;;;;;6156962;23;20006;-66
2022/08/10 09:29:06;;;;;;;7.97;1.17;;;29.80;32.80;;;;;;6157237;23;20371;-66
2022/08/10 09:31:44;;;;;;;4.85;1.25;;;29.90;32.50;;;;;;6157082;23;20006;-75
2022/08/10 09:34:28;;;;;;;4.90;1.13;;;29.90;32.70;;;;;;6157039;23;20036;-65
2022/08/10 09:37:15;;;;;;;2.60;1.10;;;30.00;32.40;;;;;;6157452;23;20037;-68
2022/08/10 09:40:24;;;;;;;5.32;1.27;;;30.00;32.60;;;;;;6156981;23;20001;-65
2022/08/10 09:43:16;;;;;;;2.35;1.05;;;30.10;32.60;;;;;;6156266;23;20006;-65
2022/08/10 09:45:41;;;;;;;;;;;30.20;32.50;;;;;;6157282;23;20006;-65
2022/08/10 09:48:29;;;;;;;4.80;1.20;;;30.20;32.70;;;;;;6156789;23;19940;-64
2022/08/10 09:51:13;;;;;;;2.60;1.00;;;30.30;32.60;;;;;;6157350;23;20064;-65
2022/08/10 09:54:06;;;;;;;5.85;1.30;;;30.30;32.30;;;;;;6156673;23;20056;-65
2022/08/10 09:57:09;;;;;;;6.22;1.10;;;30.40;32.30;;;;;;6156636;23;20005;-65
2022/08/10 09:59:46;;;;;;;2.88;1.23;;;30.50;32.20;;;;;;6096749;23;20318;-70
2022/08/10 10:02:31;;;;;;;5.25;1.10;;;30.50;32.50;;;;;;6157383;23;20033;-65
2022/08/10 10:29:06;;;;;;;6.57;1.20;;;31.00;31.60;;;;;;6163187;23;20464;-65
2022/08/10 10:32:13;;;;;;;3.58;1.10;;;31.10;31.50;;;;;;6156580;23;20017;-66
2022/08/10 10:34:44;;;;;;;5.63;1.42;;;31.10;31.80;;;;;;6156236;23;19997;-65
2022/08/10 10:37:12;;;;;;;7.15;1.20;;;31.20;31.60;;;;;;6155882;23;20006;-70
2022/08/10 10:39:46;;;;;;;4.15;1.25;;;31.20;32.00;;;;;;6155120;23;20643;-65
2022/08/10 10:42:33;;;;;;;5.82;1.40;;;31.30;31.80;;;;;;6156660;23;20036;-65
2022/08/10 10:45:17;;;;;;;5.63;1.60;;;31.30;31.90;;;;;;6156384;23;20073;-65
2022/08/10 10:47:45;;;;;;;5.05;0.98;;;31.30;31.70;;;;;;6155498;23;20405;-65
2022/08/10 10:50:50;;;;;;;3.38;1.00;;;31.40;31.00;;;;;;6154999;23;20483;-74
2022/08/10 10:53:44;;;;;;;5.50;1.17;;;31.40;31.30;;;;;;6101305;23;20084;-68
2022/08/10 10:56:50;;;;;;;5.00;1.20;;;31.50;31.20;;;;;;6154266;23;20056;-65
2022/08/10 10:59:18;;;;;;;3.05;0.90;;;31.50;30.80;;;;;;6154743;23;20073;-64
2022/08/10 11:01:54;;;;;;;8.20;1.77;;;31.60;31.30;;;;;;6154444;23;20498;-65
2022/08/10 11:04:23;;;;;;;8.43;1.30;;;31.70;31.70;;;;;;6155450;23;20008;-65
2022/08/10 11:07:13;;;;;;;3.63;1.13;;;31.80;31.40;;;;;;6155708;23;20021;-65
2022/08/10 11:09:51;;;;;;;3.70;1.20;;;31.80;31.20;;;;;;6155072;23;20025;-65
2022/08/10 11:12:27;;;;;;;2.63;1.30;;;31.80;31.10;;;;;;6154201;23;20009;-65
2022/08/10 11:15:13;;;;;;;2.10;1.30;;;31.90;31.50;;;;;;6155925;23;20033;-65
2022/08/10 11:17:49;;;;;;;4.90;1.60;;;31.90;31.50;;;;;;6153475;23;20428;-69
2022/08/10 11:20:24;;;;;;;4.15;1.63;;;32.00;31.70;;;;;;6152563;23;20005;-64
2022/08/10 11:23:18;;;;;;;2.97;1.23;;;32.10;31.10;;;;;;6151313;23;20060;-66
2022/08/10 11:25:57;;;;;;;4.82;1.42;;;32.00;30.80;;;;;;6153622;23;20425;-65
2022/08/10 11:28:43;;;;;;;6.43;1.48;;;32.00;31.10;;;;;;6172283;23;20101;-65
2022/08/10 11:31:26;;;;;;;2.00;1.20;;;32.00;31.30;;;;;;6184423;23;20056;-68
2022/08/10 11:34:29;;;;;;;4.93;1.30;;;32.00;31.20;;;;;;6184889;23;20005;-65
2022/08/10 11:37:12;;;;;;;4.97;1.15;;;32.00;31.10;;;;;;6185323;23;20008;-65
2022/08/10 11:40:05;;;;;;;8.15;1.38;;;32.00;31.60;;;;;;6185615;23;20375;-65
2022/08/10 11:42:31;;;;;;;2.85;1.33;;;32.00;31.50;;;;;;6185509;23;20005;-65
2022/08/10 11:45:30;;;;;;;5.35;1.98;;;32.10;31.70;;;;;;6185319;23;20004;-65
2022/08/10 11:48:11;;;;;;;2.42;1.30;;;32.10;31.70;;;;;;6163172;23;20151;-65
2022/08/10 11:50:48;;;;;;;2.15;1.40;;;32.10;31.60;;;;;;6185286;23;20016;-65
2022/08/10 11:53:29;;;;;;;2.45;1.40;;;32.10;31.60;;;;;;6185439;23;20009;-65
2022/08/10 11:55:57;;;;;;;5.68;1.13;;;32.10;31.30;;;;;;6185123;23;20001;-64
2022/08/10 12:01:16;;;;;;;4.95;1.33;;;32.10;31.50;;;;;;6185397;23;20451;-65
2022/08/10 12:03:44;;;;;;;9.40;1.33;;;32.10;31.90;;;;;;6181743;23;20017;-65
2022/08/10 12:06:15;;;;;;;1.70;1.20;;;32.10;31.90;;;;;;6182242;23;20005;-63
2022/08/10 12:08:44;;;;;;;3.60;1.33;;;32.20;32.00;;;;;;6184776;23;20001;-65
2022/08/10 12:11:15;;;;;;;4.32;1.33;;;32.20;31.70;;;;;;6185285;23;20013;-67
2022/08/10 12:13:47;;;;;;;5.50;1.30;;;32.30;32.00;;;;;;6185048;23;20069;-66
2022/08/10 12:16:20;;;;;;;6.82;1.25;;;32.30;32.10;;;;;;6185004;23;20008;-70
2022/08/10 12:19:17;;;;;;;11.13;1.77;;;32.30;31.90;;;;;;6185167;23;20336;-65
2022/08/10 12:22:01;;;;;;;3.35;1.50;;;32.40;32.10;;;;;;6185034;23;20587;-69
2022/08/10 12:24:55;;;;;;;4.22;1.58;;;32.50;31.80;;;;;;6186790;23;20001;-65
2022/08/10 12:27:29;;;;;;;2.47;1.25;;;32.50;31.80;;;;;;6185955;23;20021;-65
2022/08/10 12:30:06;;;;;;;4.72;1.48;;;32.60;31.90;;;;;;6187077;23;20004;-65
2022/08/10 12:32:42;;;;;;;8.48;1.67;;;32.60;31.80;;;;;;6187189;23;20041;-65
2022/08/10 12:35:21;;;;;;;4.45;1.48;;;32.70;31.60;;;;;;6185754;23;20064;-71
2022/08/10 12:38:08;;;;;;;5.22;1.40;;;32.70;31.60;;;;;;6186826;23;20085;-64
2022/08/10 12:40:48;;;;;;;14.32;2.40;;;32.70;31.80;;;;;;6187334;23;20016;-66
2022/08/10 12:43:20;;;;;;;5.47;1.42;;;32.70;32.00;;;;;;6187220;23;20005;-65
2022/08/10 12:45:58;;;;;;;6.20;1.63;;;32.70;31.80;;;;;;6187384;23;20496;-65
2022/08/10 12:49:01;;;;;;;4.00;1.50;;;32.70;31.80;;;;;;6187278;23;20078;-65
2022/08/10 12:51:29;;;;;;;5.97;1.50;;;32.70;31.90;;;;;;6187294;23;20056;-70
2022/08/10 12:54:11;;;;;;;5.00;1.42;;;32.70;31.90;;;;;;6187310;23;20008;-67
2022/08/10 12:56:42;;;;;;;3.85;1.40;;;32.70;31.90;;;;;;6187401;23;20068;-68
2022/08/10 12:59:13;;;;;;;6.50;1.52;;;32.80;32.10;;;;;;6187297;23;20009;-66
2022/08/10 13:01:40;;;;;;;5.45;1.60;;;32.80;31.90;;;;;;6186814;23;20035;-68
2022/08/10 13:04:08;;;;;;;4.10;1.30;;;32.80;32.00;;;;;;6186961;23;20009;-70
2022/08/10 13:06:45;;;;;;;7.55;1.52;;;32.70;31.80;;;;;;6187023;23;20012;-69
2022/08/10 13:09:12;;;;;;;2.40;1.35;;;32.80;32.20;;;;;;6187148;23;20024;-65
2022/08/10 13:12:08;;;;;;;5.00;1.40;;;32.80;31.90;;;;;;6187311;23;20056;-64
2022/08/10 13:14:48;;;;;;;2.22;1.45;;;32.80;32.00;;;;;;6185744;23;20009;-65
2022/08/10 13:17:29;;;;;;;25.70;2.00;;;32.70;32.00;;;;;;6187100;23;20020;-69
2022/08/10 13:19:56;;;;;;;;;;;32.70;32.10;;;;;;6187659;23;20005;-71
2022/08/10 13:22:26;;;;;;;4.30;1.60;;;32.70;32.30;;;;;;6186856;23;19948;-65
2022/08/10 13:24:56;;;;;;;6.65;1.63;;;32.70;32.20;;;;;;6186804;23;20032;-72
2022/08/10 13:27:33;;;;;;;10.95;1.50;;;32.70;32.50;;;;;;6186433;23;20021;-65
2022/08/10 13:30:05;;;;;;;6.72;1.60;;;32.70;32.70;;;;;;6186873;23;20436;-65
2022/08/10 13:32:32;;;;;;;2.70;1.60;;;32.80;32.60;;;;;;6186689;23;20009;-65
2022/08/10 13:35:02;;;;;;;5.13;1.58;;;32.90;32.60;;;;;;6186643;23;20416;-65
2022/08/10 13:37:31;;;;;;;8.60;2.58;;;32.90;32.40;;;;;;6186562;23;20514;-72
2022/08/10 13:40:00;;;;;;;3.70;1.50;;;32.90;32.40;;;;;;6186663;23;19997;-66
2022/08/10 13:42:34;;;;;;;7.65;1.67;;;32.90;32.60;;;;;;6187048;23;20339;-66
2022/08/10 13:45:08;;;;;;;5.85;1.98;;;32.90;32.60;;;;;;6186661;23;20008;-68
2022/08/10 13:47:35;;;;;;;5.55;1.70;;;33.00;32.70;;;;;;6186581;23;20017;-67